createdAt,value
2022-11-30T05:17:21.486Z,24.65
2022-11-30T05:19:47.957Z,20.30
2022-11-30T05:22:14.466Z,19.95
2022-11-30T05:24:40.930Z,22.02
2022-11-30T05:27:13.432Z,19.77
2022-11-30T05:29:41.845Z,23.08
2022-11-30T05:32:08.315Z,22.15
2022-11-30T05:34:45.854Z,19.17
2022-11-30T05:37:16.867Z,21.65
2022-11-30T05:39:43.286Z,17.67
2022-11-30T05:42:09.738Z,22.10
2022-11-30T05:44:36.205Z,19.52
2022-11-30T05:47:02.769Z,17.13
2022-11-30T05:49:29.227Z,15.77
2022-11-30T05:51:55.616Z,17.88
2022-11-30T05:54:22.036Z,16.85
2022-11-30T05:56:54.245Z,17.83
2022-11-30T05:59:21.407Z,19.33
2022-11-30T06:01:52.507Z,14.95
2022-11-30T06:04:23.336Z,15.00
2022-11-30T06:06:52.110Z,14.77
2022-11-30T06:09:22.552Z,18.83
2022-11-30T06:11:50.399Z,15.82
2022-11-30T06:14:17.227Z,17.38
2022-11-30T06:16:44.066Z,17.40
2022-11-30T06:19:10.820Z,19.38
2022-11-30T06:21:37.333Z,16.70
2022-11-30T06:24:09.996Z,15.05
2022-11-30T06:26:36.447Z,15.05
2022-11-30T06:29:02.998Z,17.17
2022-11-30T06:31:31.503Z,16.88
2022-11-30T06:33:59.430Z,18.98
2022-11-30T06:36:31.336Z,16.98
2022-11-30T06:39:02.114Z,18.52
2022-11-30T06:41:40.166Z,21.20
2022-11-30T06:44:10.761Z,14.30
2022-11-30T06:46:37.218Z,21.10
2022-11-30T06:49:03.729Z,16.08
2022-11-30T06:51:34.047Z,21.92
2022-11-30T06:54:00.546Z,15.77
2022-11-30T06:56:26.999Z,19.60
2022-11-30T06:58:55.574Z,21.13
2022-11-30T07:01:22.113Z,17.08
2022-11-30T07:03:48.686Z,16.38
2022-11-30T07:06:15.795Z,17.23
2022-11-30T07:08:43.721Z,17.25
2022-11-30T07:11:11.926Z,16.45
2022-11-30T07:13:43.939Z,19.58
2022-11-30T07:16:11.973Z,18.88
2022-11-30T07:18:39.639Z,23.30
2022-11-30T07:21:06.627Z,20.30
2022-11-30T07:23:56.398Z,16.40
2022-11-30T07:26:27.250Z,24.02
2022-11-30T07:28:55.461Z,17.23
2022-11-30T07:31:23.567Z,18.75
2022-11-30T07:33:50.668Z,17.65
2022-11-30T07:36:19.487Z,15.80
2022-11-30T07:38:46.446Z,19.23
2022-11-30T07:41:13.028Z,26.20
2022-11-30T07:43:39.978Z,23.45
2022-11-30T07:46:07.313Z,23.00
2022-11-30T07:48:35.190Z,27.60
2022-11-30T07:51:07.901Z,19.55
2022-11-30T07:53:34.773Z,26.02
2022-11-30T07:56:09.656Z,22.83
2022-11-30T07:58:38.645Z,27.30
2022-11-30T08:01:07.871Z,21.30
2022-11-30T08:03:37.214Z,23.65
2022-11-30T08:06:09.775Z,31.98
2022-11-30T08:08:39.049Z,32.22
2022-11-30T08:11:12.304Z,25.25
2022-11-30T08:13:40.099Z,32.72
2022-11-30T08:16:12.563Z,20.10
2022-11-30T08:18:48.666Z,24.50
2022-11-30T08:21:20.859Z,20.13
2022-11-30T08:23:58.464Z,22.08
2022-11-30T08:26:31.488Z,30.00
2022-11-30T08:28:59.754Z,26.08
2022-11-30T08:31:29.206Z,23.50
2022-11-30T08:34:02.023Z,25.60
2022-11-30T08:36:31.560Z,25.90
2022-11-30T08:39:12.337Z,30.08
2022-11-30T08:41:39.313Z,24.45
2022-11-30T08:44:06.096Z,23.40
2022-11-30T08:49:24.408Z,28.58
2022-11-30T08:54:45.537Z,27.80
2022-11-30T08:57:12.451Z,21.65
2022-11-30T08:59:39.890Z,26.98
2022-11-30T09:02:06.385Z,29.27
2022-11-30T09:04:32.899Z,27.52
2022-11-30T09:07:00.767Z,25.00
2022-11-30T09:09:27.216Z,26.77
2022-11-30T09:11:53.690Z,22.80
2022-11-30T09:14:20.136Z,26.40
2022-11-30T09:16:46.611Z,25.15
2022-11-30T09:19:13.091Z,30.83
2022-11-30T09:21:40.764Z,31.17
2022-11-30T09:24:07.500Z,23.48
2022-11-30T09:26:36.106Z,24.95
2022-11-30T09:29:02.717Z,27.02
2022-11-30T09:31:29.268Z,20.98
2022-11-30T09:33:57.785Z,23.23
2022-11-30T09:36:27.226Z,26.27
2022-11-30T09:38:55.215Z,21.55
2022-11-30T09:41:50.731Z,27.45
2022-11-30T09:44:53.331Z,31.38
2022-11-30T09:47:56.011Z,19.77
2022-11-30T09:50:26.183Z,24.88
2022-11-30T09:53:05.039Z,25.55
2022-11-30T09:55:39.182Z,25.42
2022-11-30T09:58:06.774Z,25.15
2022-11-30T10:00:35.117Z,22.58
2022-11-30T10:03:05.790Z,23.85
2022-11-30T10:06:08.704Z,24.13
2022-11-30T10:09:06.924Z,23.30
2022-11-30T10:11:50.624Z,30.45
2022-11-30T10:14:43.150Z,28.73
2022-11-30T10:17:31.741Z,23.50
2022-11-30T10:20:19.009Z,27.63
2022-11-30T10:23:07.082Z,30.35
2022-11-30T10:25:48.723Z,19.60
2022-11-30T10:28:51.083Z,26.58
2022-11-30T10:31:19.765Z,27.23
2022-11-30T10:33:49.490Z,23.85
2022-11-30T10:36:36.958Z,23.80
2022-11-30T10:39:29.631Z,26.60
2022-11-30T10:42:37.217Z,28.15
2022-11-30T10:45:10.108Z,22.35
2022-11-30T10:47:46.422Z,21.00
2022-11-30T10:50:17.642Z,25.25
2022-11-30T10:52:48.554Z,26.45
2022-11-30T10:55:23.471Z,27.33
2022-11-30T10:58:26.391Z,19.73
2022-11-30T11:01:02.131Z,25.48
2022-11-30T11:03:28.596Z,23.10
2022-11-30T11:06:24.552Z,25.30
2022-11-30T11:08:51.441Z,22.23
2022-11-30T11:11:39.111Z,25.05
2022-11-30T11:14:21.816Z,26.23
2022-11-30T11:16:54.839Z,18.33
2022-11-30T11:19:34.504Z,19.77
2022-11-30T11:22:29.327Z,20.00
2022-11-30T11:25:34.060Z,19.70
2022-11-30T11:28:14.121Z,21.17
2022-11-30T11:30:48.059Z,24.15
2022-11-30T11:35:42.052Z,24.35
2022-11-30T11:38:29.469Z,21.77
2022-11-30T11:41:07.130Z,26.55
2022-11-30T11:43:56.315Z,18.23
2022-11-30T11:46:29.859Z,19.17
2022-11-30T11:49:01.204Z,18.58
2022-11-30T11:51:36.761Z,24.05
2022-11-30T11:54:14.748Z,19.58
2022-11-30T11:56:41.330Z,20.52
2022-11-30T11:59:14.304Z,18.83
2022-11-30T12:02:01.754Z,19.48
2022-11-30T12:04:46.780Z,19.67
2022-11-30T12:07:33.527Z,21.65
2022-11-30T12:10:51.248Z,20.48
2022-11-30T12:13:19.109Z,22.80
2022-11-30T12:15:48.481Z,19.08
2022-11-30T12:18:24.430Z,18.08
2022-11-30T12:20:58.095Z,20.02
2022-11-30T12:23:24.514Z,21.50
2022-11-30T12:26:24.392Z,18.55
2022-11-30T12:29:19.284Z,19.65
2022-11-30T12:32:06.203Z,18.92
2022-11-30T12:34:41.752Z,21.88
2022-11-30T12:37:20.033Z,20.58
2022-11-30T12:40:10.824Z,26.42
2022-11-30T12:42:50.714Z,20.92
2022-11-30T12:45:42.355Z,21.83
2022-11-30T12:48:24.049Z,22.05
2022-11-30T12:51:32.996Z,22.23
2022-11-30T12:54:09.798Z,24.15
2022-11-30T12:56:46.353Z,21.95
2022-11-30T12:59:44.509Z,23.92
2022-11-30T13:02:48.022Z,19.85
2022-11-30T13:05:24.472Z,21.92
2022-11-30T13:08:19.073Z,31.65
2022-11-30T13:13:27.083Z,19.98
2022-11-30T13:15:53.807Z,20.20
2022-11-30T13:18:22.779Z,20.67
2022-11-30T13:21:07.631Z,27.08
2022-11-30T13:23:45.830Z,20.40
2022-11-30T13:26:38.992Z,21.88
2022-11-30T13:29:06.544Z,19.40
2022-11-30T13:31:48.436Z,18.95
2022-11-30T13:34:29.490Z,12.63
2022-11-30T13:37:28.725Z,12.80
2022-11-30T13:39:59.342Z,11.63
2022-11-30T13:42:48.883Z,18.95
2022-11-30T13:45:27.376Z,22.13
2022-11-30T13:47:57.134Z,27.27
2022-11-30T13:50:38.856Z,25.02
2022-11-30T13:53:26.106Z,29.45
2022-11-30T13:56:00.073Z,23.70
2022-11-30T13:58:28.324Z,32.42
2022-11-30T14:01:25.317Z,24.33
2022-11-30T14:04:19.773Z,25.48
2022-11-30T14:06:55.452Z,32.20
2022-11-30T14:09:37.301Z,28.88
2022-11-30T14:12:37.119Z,28.65
2022-11-30T14:15:31.505Z,35.50
2022-11-30T14:17:58.842Z,28.95
2022-11-30T14:20:37.366Z,27.45
2022-11-30T14:23:12.361Z,35.28
2022-11-30T14:25:46.599Z,30.05
2022-11-30T14:28:17.221Z,35.78
2022-11-30T14:30:44.309Z,28.77
2022-11-30T14:33:19.869Z,37.10
2022-11-30T14:35:51.428Z,29.48
2022-11-30T14:38:30.880Z,32.47
2022-11-30T14:40:59.375Z,29.65
2022-11-30T14:43:26.901Z,34.25
2022-11-30T14:46:08.147Z,30.17
2022-11-30T14:48:38.042Z,28.73
2022-11-30T14:51:04.610Z,32.28
2022-11-30T14:53:42.776Z,29.10
2022-11-30T14:56:29.119Z,23.77
2022-11-30T14:59:06.287Z,31.95
2022-11-30T15:01:33.437Z,32.35
2022-11-30T15:04:09.587Z,33.50
2022-11-30T15:06:49.383Z,30.45
2022-11-30T15:09:22.091Z,30.38
2022-11-30T15:11:50.928Z,28.23
2022-11-30T15:14:17.711Z,31.50
2022-11-30T15:16:56.932Z,25.75
2022-11-30T15:19:29.451Z,24.55
2022-11-30T15:21:57.747Z,27.65
2022-11-30T15:24:29.456Z,25.15
2022-11-30T15:27:08.770Z,32.17
2022-11-30T15:29:40.377Z,27.98
2022-11-30T15:32:15.597Z,25.63
2022-11-30T15:34:56.264Z,27.38
2022-11-30T15:37:41.081Z,26.40
2022-11-30T15:40:10.971Z,28.27
2022-11-30T15:42:40.272Z,25.70
2022-11-30T15:45:14.563Z,23.77
2022-11-30T15:50:29.347Z,30.00
2022-11-30T15:53:25.724Z,26.85
2022-11-30T15:56:02.923Z,28.15
2022-11-30T15:58:45.829Z,26.20
2022-11-30T16:01:22.043Z,26.75
2022-11-30T16:03:54.637Z,25.58
2022-11-30T16:06:47.106Z,24.70
2022-11-30T16:09:23.961Z,20.27
2022-11-30T16:11:53.918Z,26.45
2022-11-30T16:14:20.445Z,20.08
2022-11-30T16:16:47.281Z,20.42
2022-11-30T16:19:13.840Z,21.13
2022-11-30T16:21:41.112Z,21.55
2022-11-30T16:24:13.289Z,19.02
2022-11-30T16:26:55.615Z,17.38
2022-11-30T16:29:22.710Z,17.42
2022-11-30T16:31:49.319Z,15.23
2022-11-30T16:34:15.858Z,17.05
2022-11-30T16:36:42.358Z,16.40
2022-11-30T16:39:12.251Z,18.65
2022-11-30T16:41:38.942Z,16.88
2022-11-30T16:44:12.233Z,16.50
2022-11-30T16:46:39.865Z,22.23
2022-11-30T16:49:06.308Z,17.42
2022-11-30T16:51:36.392Z,16.65
2022-11-30T16:54:03.082Z,12.68
2022-11-30T16:56:30.810Z,9.05
2022-11-30T16:58:57.213Z,11.25
2022-11-30T17:01:44.148Z,8.38
2022-11-30T17:04:26.038Z,10.23
2022-11-30T17:06:58.741Z,10.18
2022-11-30T17:09:30.179Z,11.60
2022-11-30T17:11:56.668Z,11.48
2022-11-30T17:14:23.110Z,9.20
2022-11-30T17:16:49.742Z,12.38
2022-11-30T17:19:16.268Z,13.07
2022-11-30T17:21:44.489Z,14.90
2022-11-30T17:24:11.972Z,13.20
2022-11-30T17:26:38.398Z,14.30
2022-11-30T17:29:04.967Z,13.30
2022-11-30T17:31:32.431Z,11.50
2022-11-30T17:33:58.955Z,11.85
2022-11-30T17:36:26.723Z,12.80
2022-11-30T17:38:53.189Z,17.58
2022-11-30T17:41:20.257Z,12.27
2022-11-30T17:43:48.493Z,12.00
2022-11-30T17:46:17.676Z,15.73
2022-11-30T17:48:44.773Z,13.85
2022-11-30T17:51:12.196Z,15.70
2022-11-30T17:53:39.860Z,12.73
2022-11-30T17:56:08.769Z,11.60
2022-11-30T17:58:43.329Z,14.48
2022-11-30T18:01:22.435Z,14.13
2022-11-30T18:03:49.438Z,11.85
2022-11-30T18:06:16.189Z,14.95
2022-11-30T18:08:43.279Z,13.90
2022-11-30T18:11:10.044Z,11.77
2022-11-30T18:13:36.655Z,13.15
2022-11-30T18:16:27.869Z,15.48
2022-11-30T18:18:57.211Z,13.88
2022-11-30T18:21:25.226Z,13.10
2022-11-30T18:23:53.103Z,12.77
2022-11-30T18:26:22.669Z,26.50
2022-11-30T18:28:53.711Z,15.38
2022-11-30T18:31:20.237Z,11.32
2022-11-30T18:33:48.887Z,14.15
2022-11-30T18:36:15.410Z,13.90
2022-11-30T18:38:54.843Z,13.93
2022-11-30T18:41:22.202Z,14.07
2022-11-30T18:43:48.745Z,12.45
2022-11-30T18:46:15.258Z,12.13
2022-11-30T18:48:41.984Z,15.18
2022-11-30T18:51:14.146Z,11.45
2022-11-30T18:53:41.119Z,11.10
2022-11-30T18:56:13.807Z,14.77
2022-11-30T18:58:41.085Z,10.18
2022-11-30T19:01:15.860Z,12.60
2022-11-30T19:03:43.003Z,9.20
2022-11-30T19:06:10.761Z,11.30
2022-11-30T19:08:39.342Z,11.00
2022-11-30T19:11:07.362Z,13.25
2022-11-30T19:13:34.195Z,13.25
2022-11-30T19:16:02.721Z,12.68
2022-11-30T19:18:29.428Z,14.07
2022-11-30T19:20:56.102Z,10.52
2022-11-30T19:23:23.603Z,9.88
2022-11-30T19:25:53.349Z,12.30
2022-11-30T19:28:19.764Z,11.10
2022-11-30T19:30:46.241Z,10.40
2022-11-30T19:33:14.085Z,9.80
2022-11-30T19:35:40.570Z,10.25
2022-11-30T19:38:07.116Z,10.93
2022-11-30T19:40:33.504Z,9.27
2022-11-30T19:43:05.097Z,11.07
2022-11-30T19:45:31.779Z,13.82
2022-11-30T19:47:58.825Z,13.48
2022-11-30T19:50:25.313Z,10.95
2022-11-30T19:52:51.800Z,11.65
2022-11-30T19:55:18.281Z,12.38
2022-11-30T19:57:44.994Z,10.35
2022-11-30T20:00:12.457Z,10.18
2022-11-30T20:02:42.770Z,11.57
2022-11-30T20:05:18.189Z,13.90
2022-11-30T20:07:59.006Z,12.30
2022-11-30T20:10:31.813Z,15.02
2022-11-30T20:12:59.260Z,10.15
2022-11-30T20:15:27.745Z,12.75
2022-11-30T20:17:54.137Z,11.10
2022-11-30T20:20:20.546Z,12.18
2022-11-30T20:22:59.487Z,10.27
2022-11-30T20:25:26.003Z,9.18
2022-11-30T20:27:52.495Z,11.27
2022-11-30T20:30:18.959Z,10.75
2022-11-30T20:32:45.470Z,11.68
2022-11-30T20:35:11.924Z,9.38
2022-11-30T20:37:38.469Z,9.10
2022-11-30T20:40:05.654Z,12.65
2022-11-30T20:42:32.280Z,10.88
2022-11-30T20:44:58.722Z,9.60
2022-11-30T20:47:25.261Z,11.27
2022-11-30T20:49:51.692Z,9.40
2022-11-30T20:52:18.248Z,9.82
2022-11-30T20:54:44.863Z,9.90
2022-11-30T20:57:11.344Z,11.95
2022-11-30T20:59:37.879Z,11.73
2022-11-30T21:02:04.374Z,15.38
2022-11-30T21:04:30.961Z,12.35
2022-11-30T21:06:57.547Z,13.75
2022-11-30T21:09:24.019Z,12.40
2022-11-30T21:11:50.459Z,11.25
2022-11-30T21:14:17.803Z,11.07
2022-11-30T21:16:44.359Z,14.18
2022-11-30T21:19:11.914Z,13.88
2022-11-30T21:21:38.624Z,13.13
2022-11-30T21:24:07.633Z,11.07
2022-11-30T21:26:37.310Z,12.38
2022-11-30T21:29:12.875Z,13.27
2022-11-30T21:31:39.625Z,11.82
2022-11-30T21:34:06.212Z,12.68
2022-11-30T21:36:32.766Z,11.82
2022-11-30T21:39:06.107Z,15.25
2022-11-30T21:41:38.565Z,8.95
2022-11-30T21:44:07.044Z,10.65
2022-11-30T21:46:34.115Z,11.93
2022-11-30T21:49:00.932Z,8.85
2022-11-30T21:51:29.115Z,10.95
2022-11-30T21:53:58.157Z,10.50
2022-11-30T21:56:33.241Z,11.65
2022-11-30T21:59:00.795Z,11.13
2022-11-30T22:01:31.671Z,12.55
2022-11-30T22:03:59.306Z,9.65
2022-11-30T22:06:27.646Z,8.00
2022-11-30T22:08:57.271Z,10.68
2022-11-30T22:11:24.038Z,9.07
2022-11-30T22:13:54.180Z,8.85
2022-11-30T22:16:23.113Z,12.40
2022-11-30T22:18:53.406Z,11.48
2022-11-30T22:21:23.725Z,8.52
2022-11-30T22:24:01.090Z,10.63
2022-11-30T22:26:36.161Z,10.80
2022-11-30T22:29:19.323Z,12.15
2022-11-30T22:31:47.572Z,9.32
2022-11-30T22:34:14.928Z,10.07
2022-11-30T22:36:42.837Z,9.93
2022-11-30T22:39:20.425Z,11.05
2022-11-30T22:41:54.310Z,13.68
2022-11-30T22:44:22.046Z,12.60
2022-11-30T22:46:48.656Z,12.27
2022-11-30T22:49:20.767Z,12.90
2022-11-30T22:51:48.327Z,14.32
2022-11-30T22:54:14.862Z,15.20
2022-11-30T22:56:41.737Z,14.25
2022-11-30T22:59:11.602Z,14.27
